Hovedside
METAR-TAF:

METAR-TAF

Lufthavner :

Killarney, Irland

breddegrad: 52-10-51N, lengdegrad: 9-31-26W, høyde over havet: 34 m

Gjeldene værobservasjon

Denne rapporten ble laget for 4 timer og 30 minutter siden, klokken 17:00 UTC
Vind 14 kt fra Vest-sørvest
Temperatur 14°C
Luftfuktighet 63%
Trykk 997 hPa
Sikt 10 km eller mer
ingen skyer under 1500 m og ingen bygeskyer

METAR: EIKY 141700Z 25014KT 9999 CAVOK 14/07 Q0997

Tid: 22:30 (21:30 UTC)

Varsel

Denne rapporten ble laget for 4 timer og 30 minutter siden, klokken 17:00 UTC
Varsel gyldig fra 14. klokken 18 UTC til 15. klokken 03 UTC
Vind 12 kt fra Vest-sørvest
Sikt 10 km eller mer
Brutte skyer i en høyde av 3500 ft
Sannsynlighet 40% :
Midlertidig
fra 14. klokken 23 UTC til 15. klokken 03 UTC
Vind 12 kt fra Vest-nordvest

TAF: EIKY 141700Z 1418/1503 24012KT 9999 BKN035 PROB40 TEMPO 1423/1503 30012KT

Værobservasjoner og værvarsel for over 4000 flyplasser (METAR- og TAF-rapporter).

Tilgjengelige stasjoner er representert av de røde og gule prikkene på kartet.

Hold musepekeren over prikken for å se navnet på stasjonen.

Klikk så for å se værobservasjoner og -varsler.

For å forandre kartet kan du klikke på den grønne knappen med svart kryss for å zoome inn, på den grønne knappen med strek for å zoome ut, eller på de grønne pilene for å se tilstøtende kart.


METAR-TAF: